sensor_id;sensor_type;location;lat;lon;timestamp;P1;durP1;ratioP1;P2;durP2;ratioP2
10715;SDS011;5409;42.620;23.316;2024-02-04T00:02:12;1.95;;;1.73;;
10715;SDS011;5409;42.620;23.316;2024-02-04T00:04:39;1.85;;;1.70;;
10715;SDS011;5409;42.620;23.316;2024-02-04T00:07:05;2.38;;;1.77;;
10715;SDS011;5409;42.620;23.316;2024-02-04T00:09:31;2.53;;;2.33;;
10715;SDS011;5409;42.620;23.316;2024-02-04T00:11:56;4.53;;;2.85;;
10715;SDS011;5409;42.620;23.316;2024-02-04T00:14:23;1.40;;;1.35;;
10715;SDS011;5409;42.620;23.316;2024-02-04T00:16:49;3.30;;;2.65;;
10715;SDS011;5409;42.620;23.316;2024-02-04T00:19:14;5.07;;;2.25;;
10715;SDS011;5409;42.620;23.316;2024-02-04T00:21:39;1.92;;;1.80;;
10715;SDS011;5409;42.620;23.316;2024-02-04T00:24:05;4.75;;;2.53;;
10715;SDS011;5409;42.620;23.316;2024-02-04T00:26:31;1.58;;;1.48;;
10715;SDS011;5409;42.620;23.316;2024-02-04T00:28:56;1.25;;;1.25;;
10715;SDS011;5409;42.620;23.316;2024-02-04T00:31:22;2.80;;;2.53;;
10715;SDS011;5409;42.620;23.316;2024-02-04T00:33:47;1.95;;;1.75;;
10715;SDS011;5409;42.620;23.316;2024-02-04T00:36:12;2.22;;;1.52;;
10715;SDS011;5409;42.620;23.316;2024-02-04T00:38:38;2.47;;;1.65;;
10715;SDS011;5409;42.620;23.316;2024-02-04T00:41:03;1.73;;;1.63;;
10715;SDS011;5409;42.620;23.316;2024-02-04T00:43:30;1.88;;;1.73;;
10715;SDS011;5409;42.620;23.316;2024-02-04T00:45:55;1.95;;;1.85;;
10715;SDS011;5409;42.620;23.316;2024-02-04T00:48:21;0.80;;;0.80;;
10715;SDS011;5409;42.620;23.316;2024-02-04T00:50:47;1.33;;;1.23;;
10715;SDS011;5409;42.620;23.316;2024-02-04T00:53:12;1.75;;;1.65;;
10715;SDS011;5409;42.620;23.316;2024-02-04T00:55:38;1.70;;;1.60;;
10715;SDS011;5409;42.620;23.316;2024-02-04T00:58:03;2.40;;;1.63;;
10715;SDS011;5409;42.620;23.316;2024-02-04T01:00:28;5.88;;;2.17;;
10715;SDS011;5409;42.620;23.316;2024-02-04T01:02:54;3.03;;;2.33;;
10715;SDS011;5409;42.620;23.316;2024-02-04T01:05:19;1.17;;;1.00;;
10715;SDS011;5409;42.620;23.316;2024-02-04T01:07:44;1.42;;;1.33;;
10715;SDS011;5409;42.620;23.316;2024-02-04T01:10:10;2.58;;;2.47;;
10715;SDS011;5409;42.620;23.316;2024-02-04T01:12:35;1.55;;;1.45;;
10715;SDS011;5409;42.620;23.316;2024-02-04T01:15:01;2.08;;;1.88;;
10715;SDS011;5409;42.620;23.316;2024-02-04T01:17:30;5.43;;;1.67;;
10715;SDS011;5409;42.620;23.316;2024-02-04T01:19:55;2.65;;;1.58;;
10715;SDS011;5409;42.620;23.316;2024-02-04T01:22:21;1.88;;;0.95;;
10715;SDS011;5409;42.620;23.316;2024-02-04T01:24:51;1.90;;;1.80;;
10715;SDS011;5409;42.620;23.316;2024-02-04T01:27:16;1.33;;;1.27;;
10715;SDS011;5409;42.620;23.316;2024-02-04T01:29:41;1.58;;;1.42;;
10715;SDS011;5409;42.620;23.316;2024-02-04T01:32:07;1.60;;;1.50;;
10715;SDS011;5409;42.620;23.316;2024-02-04T01:34:32;1.48;;;1.40;;
10715;SDS011;5409;42.620;23.316;2024-02-04T01:36:57;0.98;;;0.98;;
10715;SDS011;5409;42.620;23.316;2024-02-04T01:39:23;1.05;;;1.05;;
10715;SDS011;5409;42.620;23.316;2024-02-04T01:41:48;1.75;;;1.65;;
10715;SDS011;5409;42.620;23.316;2024-02-04T01:44:13;1.15;;;1.15;;
10715;SDS011;5409;42.620;23.316;2024-02-04T01:46:40;2.70;;;1.10;;
10715;SDS011;5409;42.620;23.316;2024-02-04T01:49:06;0.73;;;0.73;;
10715;SDS011;5409;42.620;23.316;2024-02-04T01:51:31;1.48;;;1.38;;
10715;SDS011;5409;42.620;23.316;2024-02-04T01:53:57;1.45;;;1.23;;
10715;SDS011;5409;42.620;23.316;2024-02-04T01:56:22;2.08;;;1.40;;
10715;SDS011;5409;42.620;23.316;2024-02-04T01:58:47;1.73;;;1.63;;
10715;SDS011;5409;42.620;23.316;2024-02-04T02:01:13;1.38;;;1.27;;
10715;SDS011;5409;42.620;23.316;2024-02-04T02:03:39;1.63;;;1.30;;
10715;SDS011;5409;42.620;23.316;2024-02-04T02:06:05;2.13;;;1.33;;
10715;SDS011;5409;42.620;23.316;2024-02-04T02:08:31;1.23;;;0.98;;
10715;SDS011;5409;42.620;23.316;2024-02-04T02:10:59;2.13;;;1.60;;
10715;SDS011;5409;42.620;23.316;2024-02-04T02:13:32;1.02;;;1.02;;
10715;SDS011;5409;42.620;23.316;2024-02-04T02:16:07;1.40;;;1.30;;
10715;SDS011;5409;42.620;23.316;2024-02-04T02:18:40;1.35;;;1.02;;
10715;SDS011;5409;42.620;23.316;2024-02-04T02:26:18;1.42;;;1.42;;
10715;SDS011;5409;42.620;23.316;2024-02-04T02:28:43;2.08;;;1.65;;
10715;SDS011;5409;42.620;23.316;2024-02-04T02:31:09;1.77;;;1.65;;
10715;SDS011;5409;42.620;23.316;2024-02-04T02:33:34;2.13;;;1.92;;
10715;SDS011;5409;42.620;23.316;2024-02-04T02:36:00;1.80;;;1.30;;
10715;SDS011;5409;42.620;23.316;2024-02-04T02:38:33;1.42;;;1.38;;
10715;SDS011;5409;42.620;23.316;2024-02-04T02:41:08;0.70;;;0.70;;
10715;SDS011;5409;42.620;23.316;2024-02-04T02:43:35;0.82;;;0.75;;
10715;SDS011;5409;42.620;23.316;2024-02-04T02:46:04;1.42;;;1.33;;
10715;SDS011;5409;42.620;23.316;2024-02-04T02:48:31;1.58;;;1.48;;
10715;SDS011;5409;42.620;23.316;2024-02-04T02:50:57;1.52;;;1.42;;
10715;SDS011;5409;42.620;23.316;2024-02-04T02:53:23;1.75;;;1.65;;
10715;SDS011;5409;42.620;23.316;2024-02-04T02:55:48;0.85;;;0.85;;
10715;SDS011;5409;42.620;23.316;2024-02-04T02:58:14;1.35;;;1.25;;
10715;SDS011;5409;42.620;23.316;2024-02-04T03:00:39;1.45;;;1.20;;
10715;SDS011;5409;42.620;23.316;2024-02-04T03:03:04;1.42;;;1.33;;
10715;SDS011;5409;42.620;23.316;2024-02-04T03:05:30;0.93;;;0.93;;
10715;SDS011;5409;42.620;23.316;2024-02-04T03:07:56;1.23;;;1.13;;
10715;SDS011;5409;42.620;23.316;2024-02-04T03:10:22;0.95;;;0.95;;
10715;SDS011;5409;42.620;23.316;2024-02-04T03:12:47;1.65;;;1.55;;
10715;SDS011;5409;42.620;23.316;2024-02-04T03:15:13;0.85;;;0.60;;
10715;SDS011;5409;42.620;23.316;2024-02-04T03:17:38;0.95;;;0.95;;
10715;SDS011;5409;42.620;23.316;2024-02-04T03:20:03;1.35;;;1.25;;
10715;SDS011;5409;42.620;23.316;2024-02-04T03:22:29;0.80;;;0.80;;
10715;SDS011;5409;42.620;23.316;2024-02-04T03:24:55;0.98;;;0.98;;
10715;SDS011;5409;42.620;23.316;2024-02-04T03:27:20;1.25;;;1.25;;
10715;SDS011;5409;42.620;23.316;2024-02-04T03:29:45;0.70;;;0.70;;
10715;SDS011;5409;42.620;23.316;2024-02-04T03:32:11;2.10;;;0.85;;
10715;SDS011;5409;42.620;23.316;2024-02-04T03:34:36;1.13;;;1.02;;
10715;SDS011;5409;42.620;23.316;2024-02-04T03:37:02;0.75;;;0.75;;
10715;SDS011;5409;42.620;23.316;2024-02-04T03:39:28;0.43;;;0.43;;
10715;SDS011;5409;42.620;23.316;2024-02-04T03:41:53;1.02;;;1.02;;
10715;SDS011;5409;42.620;23.316;2024-02-04T03:44:19;0.95;;;0.93;;
10715;SDS011;5409;42.620;23.316;2024-02-04T03:46:47;1.80;;;0.77;;
10715;SDS011;5409;42.620;23.316;2024-02-04T03:49:13;0.90;;;0.90;;
10715;SDS011;5409;42.620;23.316;2024-02-04T03:51:39;0.75;;;0.75;;
10715;SDS011;5409;42.620;23.316;2024-02-04T03:54:04;0.55;;;0.55;;
10715;SDS011;5409;42.620;23.316;2024-02-04T03:56:30;0.35;;;0.35;;
10715;SDS011;5409;42.620;23.316;2024-02-04T03:58:55;0.40;;;0.40;;
10715;SDS011;5409;42.620;23.316;2024-02-04T04:01:21;0.98;;;0.98;;
10715;SDS011;5409;42.620;23.316;2024-02-04T04:03:46;0.75;;;0.75;;
10715;SDS011;5409;42.620;23.316;2024-02-04T04:06:12;0.75;;;0.55;;
10715;SDS011;5409;42.620;23.316;2024-02-04T04:08:37;1.85;;;0.50;;
10715;SDS011;5409;42.620;23.316;2024-02-04T04:11:03;0.63;;;0.63;;
10715;SDS011;5409;42.620;23.316;2024-02-04T04:13:29;1.45;;;1.45;;
10715;SDS011;5409;42.620;23.316;2024-02-04T04:15:54;0.73;;;0.73;;
10715;SDS011;5409;42.620;23.316;2024-02-04T04:18:20;1.00;;;1.00;;
10715;SDS011;5409;42.620;23.316;2024-02-04T04:20:45;0.85;;;0.85;;
10715;SDS011;5409;42.620;23.316;2024-02-04T04:23:11;0.82;;;0.82;;
10715;SDS011;5409;42.620;23.316;2024-02-04T04:25:37;0.63;;;0.63;;
10715;SDS011;5409;42.620;23.316;2024-02-04T04:28:03;0.55;;;0.55;;
10715;SDS011;5409;42.620;23.316;2024-02-04T04:30:29;1.13;;;1.08;;
10715;SDS011;5409;42.620;23.316;2024-02-04T04:32:55;1.27;;;1.00;;
10715;SDS011;5409;42.620;23.316;2024-02-04T04:35:21;0.90;;;0.88;;
10715;SDS011;5409;42.620;23.316;2024-02-04T04:37:46;0.85;;;0.85;;
10715;SDS011;5409;42.620;23.316;2024-02-04T04:40:12;1.88;;;1.60;;
10715;SDS011;5409;42.620;23.316;2024-02-04T04:42:37;0.82;;;0.82;;
10715;SDS011;5409;42.620;23.316;2024-02-04T04:45:02;2.42;;;0.95;;
10715;SDS011;5409;42.620;23.316;2024-02-04T04:47:28;0.75;;;0.75;;
10715;SDS011;5409;42.620;23.316;2024-02-04T04:49:54;1.50;;;1.40;;
10715;SDS011;5409;42.620;23.316;2024-02-04T04:52:19;1.30;;;1.20;;
10715;SDS011;5409;42.620;23.316;2024-02-04T04:54:45;0.77;;;0.77;;
10715;SDS011;5409;42.620;23.316;2024-02-04T04:57:10;1.13;;;1.10;;
10715;SDS011;5409;42.620;23.316;2024-02-04T04:59:36;0.73;;;0.73;;
10715;SDS011;5409;42.620;23.316;2024-02-04T05:02:03;1.08;;;0.98;;
10715;SDS011;5409;42.620;23.316;2024-02-04T05:04:29;0.85;;;0.85;;
10715;SDS011;5409;42.620;23.316;2024-02-04T05:06:54;0.90;;;0.88;;
10715;SDS011;5409;42.620;23.316;2024-02-04T05:09:20;0.95;;;0.95;;
10715;SDS011;5409;42.620;23.316;2024-02-04T05:11:45;1.02;;;0.90;;
10715;SDS011;5409;42.620;23.316;2024-02-04T05:14:10;0.93;;;0.93;;
10715;SDS011;5409;42.620;23.316;2024-02-04T05:16:36;0.90;;;0.90;;
10715;SDS011;5409;42.620;23.316;2024-02-04T05:19:01;0.73;;;0.73;;
10715;SDS011;5409;42.620;23.316;2024-02-04T05:21:27;0.90;;;0.82;;
10715;SDS011;5409;42.620;23.316;2024-02-04T05:23:53;0.93;;;0.93;;
10715;SDS011;5409;42.620;23.316;2024-02-04T05:26:18;0.55;;;0.55;;
10715;SDS011;5409;42.620;23.316;2024-02-04T05:28:44;0.80;;;0.80;;
10715;SDS011;5409;42.620;23.316;2024-02-04T05:31:09;1.05;;;1.02;;
10715;SDS011;5409;42.620;23.316;2024-02-04T05:33:34;0.90;;;0.90;;
10715;SDS011;5409;42.620;23.316;2024-02-04T05:36:00;1.35;;;1.15;;
10715;SDS011;5409;42.620;23.316;2024-02-04T05:38:25;0.95;;;0.95;;
10715;SDS011;5409;42.620;23.316;2024-02-04T05:40:51;0.93;;;0.93;;
10715;SDS011;5409;42.620;23.316;2024-02-04T05:43:16;0.93;;;0.93;;
10715;SDS011;5409;42.620;23.316;2024-02-04T05:45:41;0.88;;;0.73;;
10715;SDS011;5409;42.620;23.316;2024-02-04T05:48:07;0.88;;;0.88;;
10715;SDS011;5409;42.620;23.316;2024-02-04T05:50:33;1.38;;;1.27;;
10715;SDS011;5409;42.620;23.316;2024-02-04T05:52:58;0.95;;;0.95;;
10715;SDS011;5409;42.620;23.316;2024-02-04T05:55:24;1.08;;;1.08;;
10715;SDS011;5409;42.620;23.316;2024-02-04T05:57:49;0.65;;;0.65;;
10715;SDS011;5409;42.620;23.316;2024-02-04T06:00:14;1.15;;;1.15;;
10715;SDS011;5409;42.620;23.316;2024-02-04T06:02:40;0.98;;;0.98;;
10715;SDS011;5409;42.620;23.316;2024-02-04T06:05:08;1.25;;;1.15;;
10715;SDS011;5409;42.620;23.316;2024-02-04T06:07:34;0.63;;;0.63;;
10715;SDS011;5409;42.620;23.316;2024-02-04T06:09:59;1.30;;;1.20;;
10715;SDS011;5409;42.620;23.316;2024-02-04T06:12:25;1.38;;;1.38;;
10715;SDS011;5409;42.620;23.316;2024-02-04T06:14:51;1.05;;;1.05;;
10715;SDS011;5409;42.620;23.316;2024-02-04T06:17:16;1.58;;;1.48;;
10715;SDS011;5409;42.620;23.316;2024-02-04T06:19:41;1.33;;;1.27;;
10715;SDS011;5409;42.620;23.316;2024-02-04T06:22:07;1.30;;;1.20;;
10715;SDS011;5409;42.620;23.316;2024-02-04T06:24:32;1.60;;;1.50;;
10715;SDS011;5409;42.620;23.316;2024-02-04T06:26:58;1.17;;;1.08;;
10715;SDS011;5409;42.620;23.316;2024-02-04T06:29:23;0.88;;;0.88;;
10715;SDS011;5409;42.620;23.316;2024-02-04T06:31:48;0.95;;;0.95;;
10715;SDS011;5409;42.620;23.316;2024-02-04T06:34:14;1.33;;;1.23;;
10715;SDS011;5409;42.620;23.316;2024-02-04T06:36:43;1.98;;;1.20;;
10715;SDS011;5409;42.620;23.316;2024-02-04T06:39:09;1.60;;;1.50;;
10715;SDS011;5409;42.620;23.316;2024-02-04T06:41:35;0.82;;;0.82;;
10715;SDS011;5409;42.620;23.316;2024-02-04T06:44:02;0.57;;;0.57;;
10715;SDS011;5409;42.620;23.316;2024-02-04T06:46:29;0.68;;;0.68;;
10715;SDS011;5409;42.620;23.316;2024-02-04T06:48:54;0.60;;;0.60;;
10715;SDS011;5409;42.620;23.316;2024-02-04T06:51:20;0.93;;;0.73;;
10715;SDS011;5409;42.620;23.316;2024-02-04T06:53:46;0.65;;;0.65;;
10715;SDS011;5409;42.620;23.316;2024-02-04T06:56:11;0.73;;;0.65;;
10715;SDS011;5409;42.620;23.316;2024-02-04T06:58:37;0.63;;;0.63;;
10715;SDS011;5409;42.620;23.316;2024-02-04T07:01:03;0.70;;;0.70;;
10715;SDS011;5409;42.620;23.316;2024-02-04T07:03:29;2.53;;;1.35;;
10715;SDS011;5409;42.620;23.316;2024-02-04T07:05:55;1.42;;;0.50;;
10715;SDS011;5409;42.620;23.316;2024-02-04T07:08:20;6.63;;;0.65;;
10715;SDS011;5409;42.620;23.316;2024-02-04T07:10:45;1.98;;;0.60;;
10715;SDS011;5409;42.620;23.316;2024-02-04T07:13:11;0.70;;;0.70;;
10715;SDS011;5409;42.620;23.316;2024-02-04T07:15:37;0.85;;;0.85;;
10715;SDS011;5409;42.620;23.316;2024-02-04T07:18:03;0.73;;;0.73;;
10715;SDS011;5409;42.620;23.316;2024-02-04T07:20:28;1.30;;;0.35;;
10715;SDS011;5409;42.620;23.316;2024-02-04T07:22:54;0.57;;;0.57;;
10715;SDS011;5409;42.620;23.316;2024-02-04T07:25:19;1.17;;;1.17;;
10715;SDS011;5409;42.620;23.316;2024-02-04T07:27:45;0.25;;;0.25;;
10715;SDS011;5409;42.620;23.316;2024-02-04T07:30:10;1.15;;;0.65;;
10715;SDS011;5409;42.620;23.316;2024-02-04T07:32:36;0.85;;;0.63;;
10715;SDS011;5409;42.620;23.316;2024-02-04T07:35:02;0.50;;;0.50;;
10715;SDS011;5409;42.620;23.316;2024-02-04T07:37:28;0.57;;;0.55;;
10715;SDS011;5409;42.620;23.316;2024-02-04T07:39:53;0.25;;;0.25;;
10715;SDS011;5409;42.620;23.316;2024-02-04T07:42:19;0.30;;;0.30;;
10715;SDS011;5409;42.620;23.316;2024-02-04T07:44:44;0.52;;;0.52;;
10715;SDS011;5409;42.620;23.316;2024-02-04T07:47:09;0.35;;;0.35;;
10715;SDS011;5409;42.620;23.316;2024-02-04T07:49:35;0.50;;;0.30;;
10715;SDS011;5409;42.620;23.316;2024-02-04T07:52:00;0.57;;;0.57;;
10715;SDS011;5409;42.620;23.316;2024-02-04T07:54:26;0.43;;;0.43;;
10715;SDS011;5409;42.620;23.316;2024-02-04T07:56:51;1.10;;;1.10;;
10715;SDS011;5409;42.620;23.316;2024-02-04T07:59:16;0.40;;;0.32;;
10715;SDS011;5409;42.620;23.316;2024-02-04T08:01:42;1.15;;;0.52;;
10715;SDS011;5409;42.620;23.316;2024-02-04T08:04:07;0.45;;;0.45;;
10715;SDS011;5409;42.620;23.316;2024-02-04T08:06:35;0.32;;;0.32;;
10715;SDS011;5409;42.620;23.316;2024-02-04T08:09:02;0.28;;;0.28;;
10715;SDS011;5409;42.620;23.316;2024-02-04T08:11:28;0.52;;;0.52;;
10715;SDS011;5409;42.620;23.316;2024-02-04T08:13:53;1.27;;;0.30;;
10715;SDS011;5409;42.620;23.316;2024-02-04T08:16:19;0.43;;;0.43;;
10715;SDS011;5409;42.620;23.316;2024-02-04T08:18:45;0.52;;;0.52;;
10715;SDS011;5409;42.620;23.316;2024-02-04T08:21:11;0.35;;;0.35;;
10715;SDS011;5409;42.620;23.316;2024-02-04T08:23:37;0.43;;;0.43;;
10715;SDS011;5409;42.620;23.316;2024-02-04T08:26:02;0.52;;;0.52;;
10715;SDS011;5409;42.620;23.316;2024-02-04T08:28:28;0.22;;;0.22;;
10715;SDS011;5409;42.620;23.316;2024-02-04T08:30:54;0.38;;;0.38;;
10715;SDS011;5409;42.620;23.316;2024-02-04T08:33:20;0.28;;;0.28;;
10715;SDS011;5409;42.620;23.316;2024-02-04T08:35:45;0.52;;;0.52;;
10715;SDS011;5409;42.620;23.316;2024-02-04T08:38:10;0.47;;;0.47;;
10715;SDS011;5409;42.620;23.316;2024-02-04T08:40:36;0.52;;;0.52;;
10715;SDS011;5409;42.620;23.316;2024-02-04T08:43:01;0.35;;;0.35;;
10715;SDS011;5409;42.620;23.316;2024-02-04T08:45:27;0.68;;;0.68;;
10715;SDS011;5409;42.620;23.316;2024-02-04T08:47:52;0.80;;;0.80;;
10715;SDS011;5409;42.620;23.316;2024-02-04T08:50:17;0.55;;;0.55;;
10715;SDS011;5409;42.620;23.316;2024-02-04T08:52:43;0.50;;;0.50;;
10715;SDS011;5409;42.620;23.316;2024-02-04T08:55:08;0.52;;;0.52;;
10715;SDS011;5409;42.620;23.316;2024-02-04T08:57:34;0.52;;;0.52;;
10715;SDS011;5409;42.620;23.316;2024-02-04T08:59:59;0.95;;;0.77;;
10715;SDS011;5409;42.620;23.316;2024-02-04T09:02:25;0.30;;;0.30;;
10715;SDS011;5409;42.620;23.316;2024-02-04T09:04:50;0.57;;;0.57;;
10715;SDS011;5409;42.620;23.316;2024-02-04T09:07:15;0.40;;;0.40;;
10715;SDS011;5409;42.620;23.316;2024-02-04T09:09:42;0.32;;;0.32;;
10715;SDS011;5409;42.620;23.316;2024-02-04T09:12:10;0.73;;;0.73;;
10715;SDS011;5409;42.620;23.316;2024-02-04T09:14:35;0.60;;;0.55;;
10715;SDS011;5409;42.620;23.316;2024-02-04T09:17:04;0.50;;;0.50;;
10715;SDS011;5409;42.620;23.316;2024-02-04T09:19:31;0.60;;;0.60;;
10715;SDS011;5409;42.620;23.316;2024-02-04T09:21:56;0.82;;;0.75;;
10715;SDS011;5409;42.620;23.316;2024-02-04T09:24:22;1.35;;;1.25;;
10715;SDS011;5409;42.620;23.316;2024-02-04T09:26:47;0.80;;;0.80;;
10715;SDS011;5409;42.620;23.316;2024-02-04T09:29:12;0.43;;;0.43;;
10715;SDS011;5409;42.620;23.316;2024-02-04T09:31:38;0.52;;;0.52;;
10715;SDS011;5409;42.620;23.316;2024-02-04T09:34:03;0.32;;;0.32;;
10715;SDS011;5409;42.620;23.316;2024-02-04T09:36:29;0.85;;;0.85;;
10715;SDS011;5409;42.620;23.316;2024-02-04T09:38:55;0.73;;;0.73;;
10715;SDS011;5409;42.620;23.316;2024-02-04T09:41:20;1.27;;;0.98;;
10715;SDS011;5409;42.620;23.316;2024-02-04T09:43:48;0.60;;;0.60;;
10715;SDS011;5409;42.620;23.316;2024-02-04T09:46:15;0.85;;;0.85;;
10715;SDS011;5409;42.620;23.316;2024-02-04T09:48:42;1.30;;;0.47;;
10715;SDS011;5409;42.620;23.316;2024-02-04T09:51:10;1.45;;;0.85;;
10715;SDS011;5409;42.620;23.316;2024-02-04T09:53:35;1.15;;;0.80;;
10715;SDS011;5409;42.620;23.316;2024-02-04T09:56:02;0.88;;;0.88;;
10715;SDS011;5409;42.620;23.316;2024-02-04T09:58:29;0.70;;;0.70;;
10715;SDS011;5409;42.620;23.316;2024-02-04T10:00:54;1.17;;;1.17;;
10715;SDS011;5409;42.620;23.316;2024-02-04T10:03:20;0.73;;;0.73;;
10715;SDS011;5409;42.620;23.316;2024-02-04T10:05:46;0.73;;;0.73;;
10715;SDS011;5409;42.620;23.316;2024-02-04T10:08:12;0.57;;;0.57;;
10715;SDS011;5409;42.620;23.316;2024-02-04T10:10:38;1.05;;;0.88;;
10715;SDS011;5409;42.620;23.316;2024-02-04T10:13:07;1.90;;;1.30;;
10715;SDS011;5409;42.620;23.316;2024-02-04T10:15:34;2.17;;;1.08;;
10715;SDS011;5409;42.620;23.316;2024-02-04T10:17:59;1.02;;;1.02;;
10715;SDS011;5409;42.620;23.316;2024-02-04T10:20:28;1.00;;;1.00;;
10715;SDS011;5409;42.620;23.316;2024-02-04T10:22:53;0.52;;;0.52;;
10715;SDS011;5409;42.620;23.316;2024-02-04T10:25:20;1.58;;;0.88;;
10715;SDS011;5409;42.620;23.316;2024-02-04T10:27:46;1.27;;;1.13;;
10715;SDS011;5409;42.620;23.316;2024-02-04T10:30:12;0.60;;;0.60;;
10715;SDS011;5409;42.620;23.316;2024-02-04T10:32:38;1.45;;;1.00;;
10715;SDS011;5409;42.620;23.316;2024-02-04T10:35:04;2.58;;;0.90;;
10715;SDS011;5409;42.620;23.316;2024-02-04T10:37:29;0.63;;;0.63;;
10715;SDS011;5409;42.620;23.316;2024-02-04T10:39:55;0.85;;;0.82;;
10715;SDS011;5409;42.620;23.316;2024-02-04T10:42:23;1.77;;;0.77;;
10715;SDS011;5409;42.620;23.316;2024-02-04T10:44:50;1.17;;;0.75;;
10715;SDS011;5409;42.620;23.316;2024-02-04T10:47:20;0.80;;;0.80;;
10715;SDS011;5409;42.620;23.316;2024-02-04T10:49:50;0.63;;;0.63;;
10715;SDS011;5409;42.620;23.316;2024-02-04T10:52:18;0.70;;;0.63;;
10715;SDS011;5409;42.620;23.316;2024-02-04T10:54:44;0.85;;;0.85;;
10715;SDS011;5409;42.620;23.316;2024-02-04T10:57:13;0.65;;;0.65;;
10715;SDS011;5409;42.620;23.316;2024-02-04T10:59:44;0.98;;;0.98;;
10715;SDS011;5409;42.620;23.316;2024-02-04T11:02:12;1.05;;;0.98;;
10715;SDS011;5409;42.620;23.316;2024-02-04T11:04:39;0.75;;;0.75;;
10715;SDS011;5409;42.620;23.316;2024-02-04T11:07:07;0.55;;;0.55;;
10715;SDS011;5409;42.620;23.316;2024-02-04T11:09:35;0.68;;;0.68;;
10715;SDS011;5409;42.620;23.316;2024-02-04T11:12:01;0.73;;;0.45;;
10715;SDS011;5409;42.620;23.316;2024-02-04T11:14:31;0.57;;;0.57;;
10715;SDS011;5409;42.620;23.316;2024-02-04T11:20:15;0.65;;;0.65;;
10715;SDS011;5409;42.620;23.316;2024-02-04T11:27:49;0.55;;;0.55;;
10715;SDS011;5409;42.620;23.316;2024-02-04T11:30:15;0.75;;;0.75;;
10715;SDS011;5409;42.620;23.316;2024-02-04T11:32:41;0.73;;;0.73;;
10715;SDS011;5409;42.620;23.316;2024-02-04T11:35:06;0.57;;;0.57;;
10715;SDS011;5409;42.620;23.316;2024-02-04T11:37:32;0.52;;;0.52;;
10715;SDS011;5409;42.620;23.316;2024-02-04T11:39:59;0.80;;;0.80;;
10715;SDS011;5409;42.620;23.316;2024-02-04T11:42:24;0.32;;;0.32;;
10715;SDS011;5409;42.620;23.316;2024-02-04T11:44:50;0.35;;;0.35;;
10715;SDS011;5409;42.620;23.316;2024-02-04T11:47:37;0.75;;;0.75;;
10715;SDS011;5409;42.620;23.316;2024-02-04T11:50:02;0.82;;;0.82;;
10715;SDS011;5409;42.620;23.316;2024-02-04T11:52:28;0.73;;;0.73;;
10715;SDS011;5409;42.620;23.316;2024-02-04T11:54:54;0.40;;;0.40;;
10715;SDS011;5409;42.620;23.316;2024-02-04T11:57:19;0.65;;;0.65;;
10715;SDS011;5409;42.620;23.316;2024-02-04T11:59:45;0.70;;;0.70;;
10715;SDS011;5409;42.620;23.316;2024-02-04T12:02:11;0.63;;;0.63;;
10715;SDS011;5409;42.620;23.316;2024-02-04T12:04:37;1.92;;;1.38;;
10715;SDS011;5409;42.620;23.316;2024-02-04T12:07:04;0.63;;;0.35;;
10715;SDS011;5409;42.620;23.316;2024-02-04T12:09:30;0.77;;;0.77;;
10715;SDS011;5409;42.620;23.316;2024-02-04T12:11:56;1.58;;;0.95;;
10715;SDS011;5409;42.620;23.316;2024-02-04T12:14:22;0.75;;;0.65;;
10715;SDS011;5409;42.620;23.316;2024-02-04T12:16:48;0.60;;;0.60;;
10715;SDS011;5409;42.620;23.316;2024-02-04T12:19:13;0.45;;;0.45;;
10715;SDS011;5409;42.620;23.316;2024-02-04T12:21:39;0.57;;;0.57;;
10715;SDS011;5409;42.620;23.316;2024-02-04T12:24:04;0.73;;;0.73;;
10715;SDS011;5409;42.620;23.316;2024-02-04T12:26:30;0.75;;;0.75;;
10715;SDS011;5409;42.620;23.316;2024-02-04T12:28:56;0.68;;;0.68;;
10715;SDS011;5409;42.620;23.316;2024-02-04T12:31:23;0.85;;;0.85;;
10715;SDS011;5409;42.620;23.316;2024-02-04T12:33:54;1.25;;;1.25;;
10715;SDS011;5409;42.620;23.316;2024-02-04T12:36:27;0.85;;;0.73;;
10715;SDS011;5409;42.620;23.316;2024-02-04T12:38:53;1.42;;;0.77;;
10715;SDS011;5409;42.620;23.316;2024-02-04T12:41:20;0.55;;;0.55;;
10715;SDS011;5409;42.620;23.316;2024-02-04T12:43:52;0.80;;;0.68;;
10715;SDS011;5409;42.620;23.316;2024-02-04T12:46:22;1.55;;;0.95;;
10715;SDS011;5409;42.620;23.316;2024-02-04T12:48:51;1.27;;;1.05;;
10715;SDS011;5409;42.620;23.316;2024-02-04T12:51:25;0.98;;;0.60;;
10715;SDS011;5409;42.620;23.316;2024-02-04T12:54:08;3.97;;;1.10;;
10715;SDS011;5409;42.620;23.316;2024-02-04T12:59:22;0.82;;;0.82;;
10715;SDS011;5409;42.620;23.316;2024-02-04T13:01:58;0.73;;;0.73;;
10715;SDS011;5409;42.620;23.316;2024-02-04T13:07:00;1.00;;;0.90;;
10715;SDS011;5409;42.620;23.316;2024-02-04T13:09:26;1.48;;;0.85;;
10715;SDS011;5409;42.620;23.316;2024-02-04T13:11:51;1.95;;;1.40;;
10715;SDS011;5409;42.620;23.316;2024-02-04T13:14:16;2.42;;;1.67;;
10715;SDS011;5409;42.620;23.316;2024-02-04T13:16:42;1.25;;;1.15;;
10715;SDS011;5409;42.620;23.316;2024-02-04T13:19:07;0.80;;;0.80;;
10715;SDS011;5409;42.620;23.316;2024-02-04T13:21:33;0.38;;;0.38;;
10715;SDS011;5409;42.620;23.316;2024-02-04T13:23:58;0.98;;;0.98;;
10715;SDS011;5409;42.620;23.316;2024-02-04T13:26:24;1.17;;;1.17;;
10715;SDS011;5409;42.620;23.316;2024-02-04T13:28:50;0.98;;;0.98;;
10715;SDS011;5409;42.620;23.316;2024-02-04T13:31:15;0.93;;;0.93;;
10715;SDS011;5409;42.620;23.316;2024-02-04T13:33:41;0.85;;;0.85;;
10715;SDS011;5409;42.620;23.316;2024-02-04T13:36:09;2.33;;;1.15;;
10715;SDS011;5409;42.620;23.316;2024-02-04T13:38:36;0.80;;;0.73;;
10715;SDS011;5409;42.620;23.316;2024-02-04T13:41:02;1.10;;;1.10;;
10715;SDS011;5409;42.620;23.316;2024-02-04T13:43:29;0.68;;;0.68;;
10715;SDS011;5409;42.620;23.316;2024-02-04T13:45:55;1.13;;;1.02;;
10715;SDS011;5409;42.620;23.316;2024-02-04T13:48:20;0.73;;;0.73;;
10715;SDS011;5409;42.620;23.316;2024-02-04T13:50:47;0.45;;;0.45;;
10715;SDS011;5409;42.620;23.316;2024-02-04T13:53:12;1.15;;;1.15;;
10715;SDS011;5409;42.620;23.316;2024-02-04T13:55:38;0.98;;;0.98;;
10715;SDS011;5409;42.620;23.316;2024-02-04T13:58:04;1.05;;;1.05;;
10715;SDS011;5409;42.620;23.316;2024-02-04T14:00:29;1.15;;;0.98;;
10715;SDS011;5409;42.620;23.316;2024-02-04T14:02:54;1.13;;;0.93;;
10715;SDS011;5409;42.620;23.316;2024-02-04T14:05:20;0.65;;;0.65;;
10715;SDS011;5409;42.620;23.316;2024-02-04T14:07:45;2.17;;;0.80;;
10715;SDS011;5409;42.620;23.316;2024-02-04T14:10:10;1.13;;;1.13;;
10715;SDS011;5409;42.620;23.316;2024-02-04T14:12:37;1.02;;;0.95;;
10715;SDS011;5409;42.620;23.316;2024-02-04T14:15:04;0.85;;;0.73;;
10715;SDS011;5409;42.620;23.316;2024-02-04T14:17:31;1.95;;;1.88;;
10715;SDS011;5409;42.620;23.316;2024-02-04T14:19:56;0.55;;;0.55;;
10715;SDS011;5409;42.620;23.316;2024-02-04T14:22:23;0.65;;;0.63;;
10715;SDS011;5409;42.620;23.316;2024-02-04T14:24:49;0.82;;;0.80;;
10715;SDS011;5409;42.620;23.316;2024-02-04T14:27:14;1.30;;;0.65;;
10715;SDS011;5409;42.620;23.316;2024-02-04T14:29:39;0.95;;;0.95;;
10715;SDS011;5409;42.620;23.316;2024-02-04T14:32:05;0.98;;;0.98;;
10715;SDS011;5409;42.620;23.316;2024-02-04T14:34:30;1.70;;;1.02;;
10715;SDS011;5409;42.620;23.316;2024-02-04T14:36:56;1.02;;;1.02;;
10715;SDS011;5409;42.620;23.316;2024-02-04T14:39:21;1.55;;;1.45;;
10715;SDS011;5409;42.620;23.316;2024-02-04T14:41:46;0.70;;;0.70;;
10715;SDS011;5409;42.620;23.316;2024-02-04T14:44:12;0.68;;;0.68;;
10715;SDS011;5409;42.620;23.316;2024-02-04T14:46:38;0.80;;;0.80;;
10715;SDS011;5409;42.620;23.316;2024-02-04T14:49:04;0.50;;;0.50;;
10715;SDS011;5409;42.620;23.316;2024-02-04T14:51:29;1.75;;;1.65;;
10715;SDS011;5409;42.620;23.316;2024-02-04T14:53:56;1.17;;;1.08;;
10715;SDS011;5409;42.620;23.316;2024-02-04T14:56:22;0.95;;;0.88;;
10715;SDS011;5409;42.620;23.316;2024-02-04T14:58:48;0.88;;;0.88;;
10715;SDS011;5409;42.620;23.316;2024-02-04T15:01:14;1.00;;;1.00;;